createdAt,value
2023-04-08T00:04:12.965Z,6.89
2023-04-08T00:09:04.911Z,6.91
2023-04-08T00:13:57.052Z,6.93
2023-04-08T00:18:49.977Z,6.93
2023-04-08T00:23:41.969Z,6.91
2023-04-08T00:28:33.633Z,6.88
2023-04-08T00:33:26.003Z,6.85
2023-04-08T00:38:18.010Z,6.81
2023-04-08T00:43:09.849Z,6.76
2023-04-08T00:48:04.196Z,6.75
2023-04-08T00:52:55.955Z,6.72
2023-04-08T00:57:48.241Z,6.66
2023-04-08T01:03:06.073Z,6.59
2023-04-08T01:08:00.510Z,6.53
2023-04-08T01:12:55.687Z,6.47
2023-04-08T01:17:50.794Z,6.41
2023-04-08T01:23:00.675Z,6.34
2023-04-08T01:27:56.527Z,6.29
2023-04-08T01:32:48.780Z,6.21
2023-04-08T01:37:42.377Z,6.17
2023-04-08T01:42:35.460Z,6.08
2023-04-08T01:47:29.811Z,6.03
2023-04-08T01:52:23.115Z,5.94
2023-04-08T01:57:22.048Z,5.87
2023-04-08T02:02:17.089Z,5.84
2023-04-08T02:07:09.582Z,5.79
2023-04-08T02:12:01.583Z,5.76
2023-04-08T02:17:09.722Z,5.73
2023-04-08T02:22:14.796Z,5.67
2023-04-08T02:27:10.623Z,5.61
2023-04-08T02:32:05.555Z,5.63
2023-04-08T02:36:57.340Z,5.62
2023-04-08T02:41:50.592Z,5.61
2023-04-08T02:46:42.296Z,5.59
2023-04-08T02:51:35.077Z,5.56
2023-04-08T02:56:26.771Z,5.54
2023-04-08T03:01:18.492Z,5.51
2023-04-08T03:06:10.888Z,5.50
2023-04-08T03:11:03.603Z,5.49
2023-04-08T03:15:55.960Z,5.46
2023-04-08T03:20:47.588Z,5.43
2023-04-08T03:25:39.203Z,5.44
2023-04-08T03:30:30.850Z,5.38
2023-04-08T03:35:23.004Z,5.38
2023-04-08T03:40:14.764Z,5.37
2023-04-08T03:45:06.967Z,5.35
2023-04-08T03:49:58.626Z,5.32
2023-04-08T03:54:50.357Z,5.29
2023-04-08T03:59:42.591Z,5.26
2023-04-08T04:04:37.104Z,5.27
2023-04-08T04:09:28.886Z,5.23
2023-04-08T04:14:20.548Z,5.24
2023-04-08T04:19:12.214Z,5.20
2023-04-08T04:24:04.073Z,5.18
2023-04-08T04:28:56.034Z,5.16
2023-04-08T04:33:48.178Z,5.15
2023-04-08T04:38:39.866Z,5.12
2023-04-08T04:43:31.499Z,5.10
2023-04-08T04:48:23.467Z,5.08
2023-04-08T04:53:15.053Z,5.01
2023-04-08T04:58:06.827Z,5.02
2023-04-08T05:02:59.171Z,5.00
2023-04-08T05:07:50.829Z,4.96
2023-04-08T05:12:42.472Z,4.91
2023-04-08T05:17:34.254Z,4.91
2023-04-08T05:22:26.009Z,4.87
2023-04-08T05:27:17.634Z,4.88
2023-04-08T05:32:09.465Z,4.82
2023-04-08T05:37:01.318Z,4.82
2023-04-08T05:41:52.938Z,4.81
2023-04-08T05:46:44.606Z,4.83
2023-04-08T05:51:36.217Z,4.83
2023-04-08T05:56:27.818Z,4.82
2023-04-08T06:01:19.493Z,4.88
2023-04-08T06:06:11.986Z,4.89
2023-04-08T06:11:06.753Z,5.03
2023-04-08T06:15:59.062Z,5.23
2023-04-08T06:20:51.288Z,5.54
2023-04-08T06:25:43.207Z,6.01
2023-04-08T06:30:35.041Z,6.26
2023-04-08T06:35:28.283Z,6.67
2023-04-08T06:40:20.264Z,7.19
2023-04-08T06:45:11.945Z,7.81
2023-04-08T06:50:03.697Z,8.23
2023-04-08T06:54:55.309Z,8.52
2023-04-08T06:59:47.023Z,8.53
2023-04-08T07:04:38.643Z,8.58
2023-04-08T07:09:31.578Z,9.05
2023-04-08T07:14:23.233Z,9.13
2023-04-08T07:19:14.973Z,9.06
2023-04-08T07:24:06.744Z,9.19
2023-04-08T07:28:58.458Z,9.34
2023-04-08T07:33:50.317Z,9.63
2023-04-08T07:38:42.220Z,10.02
2023-04-08T07:43:37.523Z,10.49
2023-04-08T07:48:30.387Z,10.77
2023-04-08T07:53:24.008Z,10.91
2023-04-08T07:58:15.933Z,11.03
2023-04-08T08:03:07.786Z,11.63
2023-04-08T08:07:59.594Z,12.17
2023-04-08T08:12:51.299Z,12.70
2023-04-08T08:17:42.934Z,13.42
2023-04-08T08:22:37.993Z,13.81
2023-04-08T08:27:34.550Z,14.21
2023-04-08T08:32:26.286Z,14.68
2023-04-08T08:37:17.962Z,15.08
2023-04-08T08:42:27.674Z,15.24
2023-04-08T08:47:19.460Z,15.25
2023-04-08T08:52:11.763Z,15.08
2023-04-08T08:57:03.456Z,15.20
2023-04-08T09:01:55.271Z,15.75
2023-04-08T09:06:48.961Z,15.94
2023-04-08T09:11:46.249Z,16.27
2023-04-08T09:16:43.047Z,16.77
2023-04-08T09:21:35.677Z,17.35
2023-04-08T09:26:27.712Z,17.47
2023-04-08T09:31:21.585Z,17.50
2023-04-08T09:36:13.267Z,17.57
2023-04-08T09:41:08.982Z,17.78
2023-04-08T09:46:04.383Z,17.74
2023-04-08T09:50:57.900Z,17.74
2023-04-08T09:55:55.413Z,17.93
2023-04-08T10:00:51.002Z,18.15
2023-04-08T10:05:43.954Z,18.40
2023-04-08T10:10:38.653Z,18.54
2023-04-08T10:15:34.548Z,18.58
2023-04-08T10:20:38.088Z,18.64
2023-04-08T10:25:34.117Z,18.78
2023-04-08T10:30:28.597Z,19.19
2023-04-08T10:35:33.312Z,19.64
2023-04-08T10:40:24.986Z,19.64
2023-04-08T10:45:18.374Z,19.62
2023-04-08T10:50:18.109Z,19.89
2023-04-08T10:55:09.986Z,19.89
2023-04-08T11:00:02.592Z,19.98
2023-04-08T11:04:54.506Z,20.09
2023-04-08T11:09:46.203Z,20.12
2023-04-08T11:14:41.341Z,19.92
2023-04-08T11:19:33.610Z,19.96
2023-04-08T11:24:25.926Z,19.71
2023-04-08T11:29:17.589Z,19.94
2023-04-08T11:34:09.461Z,20.06
2023-04-08T11:39:01.098Z,20.03
2023-04-08T11:43:57.097Z,20.06
2023-04-08T11:48:59.720Z,19.73
2023-04-08T11:53:54.626Z,19.67
2023-04-08T11:58:48.020Z,19.37
2023-04-08T12:03:40.187Z,19.56
2023-04-08T12:08:31.848Z,19.40
2023-04-08T12:13:23.448Z,19.41
2023-04-08T12:18:15.057Z,19.56
2023-04-08T12:23:08.179Z,19.70
2023-04-08T12:27:59.850Z,19.24
2023-04-08T12:32:51.526Z,18.92
2023-04-08T12:37:43.321Z,18.80
2023-04-08T12:42:35.286Z,18.66
2023-04-08T12:47:27.111Z,18.55
2023-04-08T12:52:18.879Z,18.36
2023-04-08T12:57:10.857Z,18.32
2023-04-08T13:02:02.498Z,18.19
2023-04-08T13:06:54.186Z,18.28
2023-04-08T13:11:45.921Z,18.19
2023-04-08T13:16:38.249Z,17.92
2023-04-08T13:21:30.026Z,17.63
2023-04-08T13:26:22.510Z,17.54
2023-04-08T13:31:14.177Z,17.25
2023-04-08T13:36:06.192Z,17.06
2023-04-08T13:40:57.857Z,16.83
2023-04-08T13:45:49.624Z,16.78
2023-04-08T13:50:42.455Z,16.77
2023-04-08T13:55:34.242Z,16.95
2023-04-08T14:00:26.386Z,17.22
2023-04-08T14:05:18.385Z,17.23
2023-04-08T14:10:10.530Z,17.15
2023-04-08T14:15:03.009Z,17.05
2023-04-08T14:19:54.630Z,17.12
2023-04-08T14:24:46.284Z,17.12
2023-04-08T14:29:37.907Z,17.15
2023-04-08T14:34:29.604Z,17.16
2023-04-08T14:39:21.765Z,17.23
2023-04-08T14:44:13.391Z,17.30
2023-04-08T14:49:05.009Z,17.39
2023-04-08T14:53:56.648Z,17.53
2023-04-08T14:58:48.274Z,17.47
2023-04-08T15:03:40.041Z,17.40
2023-04-08T15:08:31.962Z,17.31
2023-04-08T15:13:23.753Z,17.21
2023-04-08T15:18:15.564Z,17.27
2023-04-08T15:23:07.965Z,17.26
2023-04-08T15:27:59.586Z,16.98
2023-04-08T15:32:52.598Z,16.85
2023-04-08T15:37:44.503Z,16.82
2023-04-08T15:42:36.156Z,16.69
2023-04-08T15:47:28.242Z,16.67
2023-04-08T15:52:19.880Z,16.77
2023-04-08T15:57:11.593Z,16.70
2023-04-08T16:02:03.350Z,16.61
2023-04-08T16:06:55.066Z,16.60
2023-04-08T16:11:46.677Z,16.62
2023-04-08T16:16:38.872Z,16.57
2023-04-08T16:21:31.492Z,16.57
2023-04-08T16:26:24.325Z,16.56
2023-04-08T16:31:16.638Z,16.53
2023-04-08T16:36:09.764Z,16.47
2023-04-08T16:41:01.588Z,16.34
2023-04-08T16:45:53.777Z,16.26
2023-04-08T16:50:45.684Z,16.03
2023-04-08T16:55:37.809Z,15.89
2023-04-08T17:00:30.522Z,15.82
2023-04-08T17:05:23.046Z,15.74
2023-04-08T17:10:15.483Z,15.61
2023-04-08T17:15:08.142Z,15.52
2023-04-08T17:19:59.862Z,15.44
2023-04-08T17:24:51.583Z,15.29
2023-04-08T17:29:43.202Z,15.16
2023-04-08T17:34:34.953Z,15.02
2023-04-08T17:39:26.731Z,14.97
2023-04-08T17:44:18.403Z,14.84
2023-04-08T17:49:14.250Z,14.65
2023-04-08T17:54:06.105Z,14.59
2023-04-08T17:58:57.808Z,14.49
2023-04-08T18:03:52.578Z,14.39
2023-04-08T18:08:45.154Z,14.38
2023-04-08T18:13:36.808Z,14.36
2023-04-08T18:18:28.435Z,14.29
2023-04-08T18:23:19.974Z,14.23
2023-04-08T18:28:11.931Z,14.11
2023-04-08T18:33:04.156Z,14.00
2023-04-08T18:37:56.517Z,13.84
2023-04-08T18:42:48.204Z,13.72
2023-04-08T18:47:40.484Z,13.59
2023-04-08T18:52:32.534Z,13.48
2023-04-08T18:57:24.762Z,13.35
2023-04-08T19:02:16.767Z,13.25
2023-04-08T19:07:08.682Z,13.19
2023-04-08T19:12:00.550Z,13.10
2023-04-08T19:16:52.531Z,12.99
2023-04-08T19:21:44.152Z,12.85
2023-04-08T19:26:36.318Z,12.78
2023-04-08T19:31:28.672Z,12.69
2023-04-08T19:36:20.457Z,12.61
2023-04-08T19:41:12.064Z,12.57
2023-04-08T19:46:03.992Z,12.47
2023-04-08T19:50:55.620Z,12.41
2023-04-08T19:55:47.384Z,12.29
2023-04-08T20:00:39.437Z,12.21
2023-04-08T20:05:31.193Z,12.13
2023-04-08T20:10:23.310Z,12.05
2023-04-08T20:15:24.168Z,11.98
2023-04-08T20:20:17.028Z,11.95
2023-04-08T20:25:08.656Z,11.91
2023-04-08T20:30:01.445Z,11.80
2023-04-08T20:34:53.089Z,11.77
2023-04-08T20:39:44.738Z,11.71
2023-04-08T20:44:36.453Z,11.63
2023-04-08T20:49:28.137Z,11.55
2023-04-08T20:54:19.819Z,11.49
2023-04-08T20:59:11.821Z,11.39
2023-04-08T21:04:04.937Z,11.29
2023-04-08T21:08:56.592Z,11.19
2023-04-08T21:13:49.084Z,11.04
2023-04-08T21:18:41.179Z,10.91
2023-04-08T21:23:32.850Z,10.79
2023-04-08T21:28:24.507Z,10.62
2023-04-08T21:33:16.102Z,10.49
2023-04-08T21:38:07.785Z,10.30
2023-04-08T21:42:59.353Z,10.19
2023-04-08T21:47:51.239Z,10.02
2023-04-08T21:52:44.013Z,9.92
2023-04-08T21:57:35.825Z,9.82
2023-04-08T22:02:27.595Z,9.71
2023-04-08T22:07:19.445Z,9.67
2023-04-08T22:12:11.601Z,9.56
2023-04-08T22:17:04.765Z,9.48
2023-04-08T22:21:56.526Z,9.37
2023-04-08T22:26:48.209Z,9.28
2023-04-08T22:31:39.844Z,9.19
2023-04-08T22:36:31.657Z,9.11
2023-04-08T22:41:24.275Z,9.06
2023-04-08T22:46:18.459Z,8.97
2023-04-08T22:51:10.761Z,8.86
2023-04-08T22:56:03.361Z,8.79
2023-04-08T23:00:54.975Z,8.68
2023-04-08T23:05:46.704Z,8.64
2023-04-08T23:10:38.316Z,8.59
2023-04-08T23:15:30.207Z,8.53
2023-04-08T23:20:21.867Z,8.50
2023-04-08T23:25:13.680Z,8.40
2023-04-08T23:30:05.992Z,8.37
2023-04-08T23:34:57.645Z,8.32
2023-04-08T23:39:49.748Z,8.29
2023-04-08T23:44:41.753Z,8.25
2023-04-08T23:49:34.324Z,8.19
2023-04-08T23:54:30.471Z,8.15
2023-04-08T23:59:22.044Z,8.11
